sensor_id;sensor_type;location;lat;lon;timestamp;temperature;humidity
68485;DHT22;55472;50.060;21.960;2023-12-20T00:00:09;2.10;91.00
68485;DHT22;55472;50.060;21.960;2023-12-20T00:02:35;2.10;90.90
68485;DHT22;55472;50.060;21.960;2023-12-20T00:05:01;2.10;91.00
68485;DHT22;55472;50.060;21.960;2023-12-20T00:07:27;2.10;90.80
68485;DHT22;55472;50.060;21.960;2023-12-20T00:09:54;2.10;91.00
68485;DHT22;55472;50.060;21.960;2023-12-20T00:12:20;2.10;90.90
68485;DHT22;55472;50.060;21.960;2023-12-20T00:14:46;2.10;90.90
68485;DHT22;55472;50.060;21.960;2023-12-20T00:17:12;2.10;90.70
68485;DHT22;55472;50.060;21.960;2023-12-20T00:19:38;2.10;90.70
68485;DHT22;55472;50.060;21.960;2023-12-20T00:22:04;2.10;90.80
68485;DHT22;55472;50.060;21.960;2023-12-20T00:24:30;2.10;90.90
68485;DHT22;55472;50.060;21.960;2023-12-20T00:26:57;2.10;90.80
68485;DHT22;55472;50.060;21.960;2023-12-20T00:29:23;2.20;90.70
68485;DHT22;55472;50.060;21.960;2023-12-20T00:31:49;2.20;90.60
68485;DHT22;55472;50.060;21.960;2023-12-20T00:34:15;2.20;90.60
68485;DHT22;55472;50.060;21.960;2023-12-20T00:36:41;2.20;90.50
68485;DHT22;55472;50.060;21.960;2023-12-20T00:39:07;2.20;90.40
68485;DHT22;55472;50.060;21.960;2023-12-20T00:41:33;2.20;90.30
68485;DHT22;55472;50.060;21.960;2023-12-20T00:43:59;2.30;90.30
68485;DHT22;55472;50.060;21.960;2023-12-20T00:46:25;2.20;90.10
68485;DHT22;55472;50.060;21.960;2023-12-20T00:48:51;2.20;90.00
68485;DHT22;55472;50.060;21.960;2023-12-20T00:51:17;2.20;89.80
68485;DHT22;55472;50.060;21.960;2023-12-20T00:53:44;2.30;89.90
68485;DHT22;55472;50.060;21.960;2023-12-20T00:56:10;2.30;89.60
68485;DHT22;55472;50.060;21.960;2023-12-20T00:58:36;2.30;89.40
68485;DHT22;55472;50.060;21.960;2023-12-20T01:01:02;2.30;89.30
68485;DHT22;55472;50.060;21.960;2023-12-20T01:03:29;2.30;89.30
68485;DHT22;55472;50.060;21.960;2023-12-20T01:05:55;2.30;89.20
68485;DHT22;55472;50.060;21.960;2023-12-20T01:08:21;2.30;89.10
68485;DHT22;55472;50.060;21.960;2023-12-20T01:10:48;2.40;89.00
68485;DHT22;55472;50.060;21.960;2023-12-20T01:13:14;2.40;88.90
68485;DHT22;55472;50.060;21.960;2023-12-20T01:15:40;2.40;88.80
68485;DHT22;55472;50.060;21.960;2023-12-20T01:18:06;2.30;88.70
68485;DHT22;55472;50.060;21.960;2023-12-20T01:20:32;2.30;88.80
68485;DHT22;55472;50.060;21.960;2023-12-20T01:22:58;2.30;88.90
68485;DHT22;55472;50.060;21.960;2023-12-20T01:25:24;2.20;89.20
68485;DHT22;55472;50.060;21.960;2023-12-20T01:27:51;2.20;89.30
68485;DHT22;55472;50.060;21.960;2023-12-20T01:30:17;2.20;89.20
68485;DHT22;55472;50.060;21.960;2023-12-20T01:32:43;2.10;89.50
68485;DHT22;55472;50.060;21.960;2023-12-20T01:35:09;2.10;89.40
68485;DHT22;55472;50.060;21.960;2023-12-20T01:37:35;2.10;89.70
68485;DHT22;55472;50.060;21.960;2023-12-20T01:40:01;2.10;89.50
68485;DHT22;55472;50.060;21.960;2023-12-20T01:42:28;2.00;89.60
68485;DHT22;55472;50.060;21.960;2023-12-20T01:44:55;2.00;89.90
68485;DHT22;55472;50.060;21.960;2023-12-20T01:47:21;2.00;89.80
68485;DHT22;55472;50.060;21.960;2023-12-20T01:49:48;1.90;89.90
68485;DHT22;55472;50.060;21.960;2023-12-20T01:52:15;1.90;90.00
68485;DHT22;55472;50.060;21.960;2023-12-20T01:54:42;1.90;90.10
68485;DHT22;55472;50.060;21.960;2023-12-20T01:57:09;1.90;90.20
68485;DHT22;55472;50.060;21.960;2023-12-20T01:59:35;1.90;90.10
68485;DHT22;55472;50.060;21.960;2023-12-20T02:04:37;1.90;90.10
68485;DHT22;55472;50.060;21.960;2023-12-20T02:07:04;1.90;90.10
68485;DHT22;55472;50.060;21.960;2023-12-20T02:09:30;1.90;90.30
68485;DHT22;55472;50.060;21.960;2023-12-20T02:11:57;1.90;90.10
68485;DHT22;55472;50.060;21.960;2023-12-20T02:14:24;1.80;90.00
68485;DHT22;55472;50.060;21.960;2023-12-20T02:16:50;1.80;89.90
68485;DHT22;55472;50.060;21.960;2023-12-20T02:19:17;1.90;89.80
68485;DHT22;55472;50.060;21.960;2023-12-20T02:21:45;1.80;89.70
68485;DHT22;55472;50.060;21.960;2023-12-20T02:24:11;1.90;89.70
68485;DHT22;55472;50.060;21.960;2023-12-20T02:26:38;1.90;89.80
68485;DHT22;55472;50.060;21.960;2023-12-20T02:29:04;1.80;89.70
68485;DHT22;55472;50.060;21.960;2023-12-20T02:31:30;1.80;89.80
68485;DHT22;55472;50.060;21.960;2023-12-20T02:33:56;1.80;90.00
68485;DHT22;55472;50.060;21.960;2023-12-20T02:36:22;1.80;89.90
68485;DHT22;55472;50.060;21.960;2023-12-20T02:38:48;1.80;89.80
68485;DHT22;55472;50.060;21.960;2023-12-20T02:41:16;1.80;89.90
68485;DHT22;55472;50.060;21.960;2023-12-20T02:43:43;1.80;89.80
68485;DHT22;55472;50.060;21.960;2023-12-20T02:46:10;1.80;89.80
68485;DHT22;55472;50.060;21.960;2023-12-20T02:48:36;1.80;89.80
68485;DHT22;55472;50.060;21.960;2023-12-20T02:51:02;1.70;89.90
68485;DHT22;55472;50.060;21.960;2023-12-20T02:53:28;1.70;90.10
68485;DHT22;55472;50.060;21.960;2023-12-20T02:55:55;1.70;90.20
68485;DHT22;55472;50.060;21.960;2023-12-20T02:58:20;1.70;90.20
68485;DHT22;55472;50.060;21.960;2023-12-20T03:00:47;1.70;90.50
68485;DHT22;55472;50.060;21.960;2023-12-20T03:03:13;1.60;90.60
68485;DHT22;55472;50.060;21.960;2023-12-20T03:05:39;1.60;90.70
68485;DHT22;55472;50.060;21.960;2023-12-20T03:08:05;1.60;90.80
68485;DHT22;55472;50.060;21.960;2023-12-20T03:10:32;1.60;91.00
68485;DHT22;55472;50.060;21.960;2023-12-20T03:12:57;1.50;91.10
68485;DHT22;55472;50.060;21.960;2023-12-20T03:15:24;1.50;91.30
68485;DHT22;55472;50.060;21.960;2023-12-20T03:17:50;1.50;91.50
68485;DHT22;55472;50.060;21.960;2023-12-20T03:20:16;1.50;91.50
68485;DHT22;55472;50.060;21.960;2023-12-20T03:22:42;1.50;91.50
68485;DHT22;55472;50.060;21.960;2023-12-20T03:25:08;1.50;91.60
68485;DHT22;55472;50.060;21.960;2023-12-20T03:27:37;1.50;91.50
68485;DHT22;55472;50.060;21.960;2023-12-20T03:30:05;1.50;91.60
68485;DHT22;55472;50.060;21.960;2023-12-20T03:32:31;1.40;91.80
68485;DHT22;55472;50.060;21.960;2023-12-20T03:34:58;1.40;91.80
68485;DHT22;55472;50.060;21.960;2023-12-20T03:37:24;1.40;92.00
68485;DHT22;55472;50.060;21.960;2023-12-20T03:39:50;1.40;91.90
68485;DHT22;55472;50.060;21.960;2023-12-20T03:42:16;1.30;92.00
68485;DHT22;55472;50.060;21.960;2023-12-20T03:44:42;1.30;92.10
68485;DHT22;55472;50.060;21.960;2023-12-20T03:47:08;1.40;91.90
68485;DHT22;55472;50.060;21.960;2023-12-20T03:49:34;1.30;91.80
68485;DHT22;55472;50.060;21.960;2023-12-20T03:52:03;1.40;91.70
68485;DHT22;55472;50.060;21.960;2023-12-20T03:54:29;1.30;91.50
68485;DHT22;55472;50.060;21.960;2023-12-20T03:56:55;1.30;91.60
68485;DHT22;55472;50.060;21.960;2023-12-20T03:59:22;1.30;91.60
68485;DHT22;55472;50.060;21.960;2023-12-20T04:01:48;1.30;91.60
68485;DHT22;55472;50.060;21.960;2023-12-20T04:04:14;1.30;91.70
68485;DHT22;55472;50.060;21.960;2023-12-20T04:06:40;1.20;91.80
68485;DHT22;55472;50.060;21.960;2023-12-20T04:09:06;1.20;91.70
68485;DHT22;55472;50.060;21.960;2023-12-20T04:11:35;1.20;91.50
68485;DHT22;55472;50.060;21.960;2023-12-20T04:14:01;1.20;91.60
68485;DHT22;55472;50.060;21.960;2023-12-20T04:16:27;1.20;91.70
68485;DHT22;55472;50.060;21.960;2023-12-20T04:18:53;1.10;91.70
68485;DHT22;55472;50.060;21.960;2023-12-20T04:21:19;1.10;91.80
68485;DHT22;55472;50.060;21.960;2023-12-20T04:23:45;1.10;91.80
68485;DHT22;55472;50.060;21.960;2023-12-20T04:26:11;1.10;91.90
68485;DHT22;55472;50.060;21.960;2023-12-20T04:28:37;1.00;91.70
68485;DHT22;55472;50.060;21.960;2023-12-20T04:31:03;1.10;91.70
68485;DHT22;55472;50.060;21.960;2023-12-20T04:33:30;1.10;91.70
68485;DHT22;55472;50.060;21.960;2023-12-20T04:35:56;1.00;91.80
68485;DHT22;55472;50.060;21.960;2023-12-20T04:38:23;1.00;92.00
68485;DHT22;55472;50.060;21.960;2023-12-20T04:40:49;1.00;91.90
68485;DHT22;55472;50.060;21.960;2023-12-20T04:43:15;1.00;92.10
68485;DHT22;55472;50.060;21.960;2023-12-20T04:45:41;1.00;92.20
68485;DHT22;55472;50.060;21.960;2023-12-20T04:48:07;1.00;92.20
68485;DHT22;55472;50.060;21.960;2023-12-20T04:50:33;1.00;92.10
68485;DHT22;55472;50.060;21.960;2023-12-20T04:53:00;0.90;92.20
68485;DHT22;55472;50.060;21.960;2023-12-20T04:55:26;0.90;92.40
68485;DHT22;55472;50.060;21.960;2023-12-20T04:57:52;0.90;92.60
68485;DHT22;55472;50.060;21.960;2023-12-20T05:00:18;0.90;92.70
68485;DHT22;55472;50.060;21.960;2023-12-20T05:02:45;0.90;92.60
68485;DHT22;55472;50.060;21.960;2023-12-20T05:05:11;0.90;92.50
68485;DHT22;55472;50.060;21.960;2023-12-20T05:07:37;0.90;92.60
68485;DHT22;55472;50.060;21.960;2023-12-20T05:10:03;0.90;92.80
68485;DHT22;55472;50.060;21.960;2023-12-20T05:12:34;0.90;92.70
68485;DHT22;55472;50.060;21.960;2023-12-20T05:15:00;0.90;92.90
68485;DHT22;55472;50.060;21.960;2023-12-20T05:17:26;0.90;93.00
68485;DHT22;55472;50.060;21.960;2023-12-20T05:19:52;0.90;93.00
68485;DHT22;55472;50.060;21.960;2023-12-20T05:22:19;0.80;93.10
68485;DHT22;55472;50.060;21.960;2023-12-20T05:24:45;0.90;93.10
68485;DHT22;55472;50.060;21.960;2023-12-20T05:27:12;0.80;93.30
68485;DHT22;55472;50.060;21.960;2023-12-20T05:29:38;0.90;93.10
68485;DHT22;55472;50.060;21.960;2023-12-20T05:32:04;0.90;93.20
68485;DHT22;55472;50.060;21.960;2023-12-20T05:34:31;0.90;93.10
68485;DHT22;55472;50.060;21.960;2023-12-20T05:36:58;0.80;93.20
68485;DHT22;55472;50.060;21.960;2023-12-20T05:39:23;0.90;92.90
68485;DHT22;55472;50.060;21.960;2023-12-20T05:41:50;0.90;92.90
68485;DHT22;55472;50.060;21.960;2023-12-20T05:44:16;0.90;92.80
68485;DHT22;55472;50.060;21.960;2023-12-20T05:46:42;0.90;92.70
68485;DHT22;55472;50.060;21.960;2023-12-20T05:49:08;1.00;92.60
68485;DHT22;55472;50.060;21.960;2023-12-20T05:51:34;1.00;92.00
68485;DHT22;55472;50.060;21.960;2023-12-20T05:54:00;1.00;91.70
68485;DHT22;55472;50.060;21.960;2023-12-20T05:56:26;1.10;91.40
68485;DHT22;55472;50.060;21.960;2023-12-20T05:58:53;1.10;91.20
68485;DHT22;55472;50.060;21.960;2023-12-20T06:01:19;1.10;91.30
68485;DHT22;55472;50.060;21.960;2023-12-20T06:03:45;1.20;91.10
68485;DHT22;55472;50.060;21.960;2023-12-20T06:06:14;1.20;90.80
68485;DHT22;55472;50.060;21.960;2023-12-20T06:08:41;1.20;90.50
68485;DHT22;55472;50.060;21.960;2023-12-20T06:11:10;1.20;90.40
68485;DHT22;55472;50.060;21.960;2023-12-20T06:13:36;1.30;90.40
68485;DHT22;55472;50.060;21.960;2023-12-20T06:16:02;1.30;89.70
68485;DHT22;55472;50.060;21.960;2023-12-20T06:18:30;1.30;89.20
68485;DHT22;55472;50.060;21.960;2023-12-20T06:20:56;1.40;89.10
68485;DHT22;55472;50.060;21.960;2023-12-20T06:23:22;1.40;88.90
68485;DHT22;55472;50.060;21.960;2023-12-20T06:25:49;1.40;88.90
68485;DHT22;55472;50.060;21.960;2023-12-20T06:28:15;1.40;88.80
68485;DHT22;55472;50.060;21.960;2023-12-20T06:30:41;1.50;88.50
68485;DHT22;55472;50.060;21.960;2023-12-20T06:33:07;1.50;88.20
68485;DHT22;55472;50.060;21.960;2023-12-20T06:35:35;1.50;87.80
68485;DHT22;55472;50.060;21.960;2023-12-20T06:38:01;1.60;87.50
68485;DHT22;55472;50.060;21.960;2023-12-20T06:40:28;1.60;87.20
68485;DHT22;55472;50.060;21.960;2023-12-20T06:42:54;1.70;87.20
68485;DHT22;55472;50.060;21.960;2023-12-20T06:45:20;1.70;87.10
68485;DHT22;55472;50.060;21.960;2023-12-20T06:47:46;1.70;87.10
68485;DHT22;55472;50.060;21.960;2023-12-20T06:50:12;1.80;86.60
68485;DHT22;55472;50.060;21.960;2023-12-20T06:52:38;1.70;86.40
68485;DHT22;55472;50.060;21.960;2023-12-20T06:55:08;1.80;86.40
68485;DHT22;55472;50.060;21.960;2023-12-20T06:57:36;1.80;85.80
68485;DHT22;55472;50.060;21.960;2023-12-20T07:00:04;1.80;85.70
68485;DHT22;55472;50.060;21.960;2023-12-20T07:02:31;1.90;85.60
68485;DHT22;55472;50.060;21.960;2023-12-20T07:04:57;1.90;85.30
68485;DHT22;55472;50.060;21.960;2023-12-20T07:07:26;1.90;85.50
68485;DHT22;55472;50.060;21.960;2023-12-20T07:09:59;1.90;85.40
68485;DHT22;55472;50.060;21.960;2023-12-20T07:12:25;1.90;85.50
68485;DHT22;55472;50.060;21.960;2023-12-20T07:14:51;1.90;85.70
68485;DHT22;55472;50.060;21.960;2023-12-20T07:17:17;2.00;85.80
68485;DHT22;55472;50.060;21.960;2023-12-20T07:19:43;2.00;85.60
68485;DHT22;55472;50.060;21.960;2023-12-20T07:22:09;2.00;85.30
68485;DHT22;55472;50.060;21.960;2023-12-20T07:24:36;2.00;85.20
68485;DHT22;55472;50.060;21.960;2023-12-20T07:27:02;2.00;85.10
68485;DHT22;55472;50.060;21.960;2023-12-20T07:29:29;2.10;85.00
68485;DHT22;55472;50.060;21.960;2023-12-20T07:31:54;2.10;85.10
68485;DHT22;55472;50.060;21.960;2023-12-20T07:34:21;2.10;85.20
68485;DHT22;55472;50.060;21.960;2023-12-20T07:36:47;2.10;85.00
68485;DHT22;55472;50.060;21.960;2023-12-20T07:39:14;2.10;85.20
68485;DHT22;55472;50.060;21.960;2023-12-20T07:41:40;2.10;85.50
68485;DHT22;55472;50.060;21.960;2023-12-20T07:44:06;2.20;85.70
68485;DHT22;55472;50.060;21.960;2023-12-20T07:46:33;2.20;85.70
68485;DHT22;55472;50.060;21.960;2023-12-20T07:48:59;2.20;85.70
68485;DHT22;55472;50.060;21.960;2023-12-20T07:51:25;2.20;85.80
68485;DHT22;55472;50.060;21.960;2023-12-20T07:53:52;2.20;85.70
68485;DHT22;55472;50.060;21.960;2023-12-20T07:56:19;2.20;85.80
68485;DHT22;55472;50.060;21.960;2023-12-20T07:58:46;2.20;85.90
68485;DHT22;55472;50.060;21.960;2023-12-20T08:01:15;2.20;85.90
68485;DHT22;55472;50.060;21.960;2023-12-20T08:03:42;2.20;86.50
68485;DHT22;55472;50.060;21.960;2023-12-20T08:06:07;2.20;86.50
68485;DHT22;55472;50.060;21.960;2023-12-20T08:08:34;2.20;86.70
68485;DHT22;55472;50.060;21.960;2023-12-20T08:11:00;2.20;87.00
68485;DHT22;55472;50.060;21.960;2023-12-20T08:13:26;2.20;87.10
68485;DHT22;55472;50.060;21.960;2023-12-20T08:15:53;2.20;87.30
68485;DHT22;55472;50.060;21.960;2023-12-20T08:18:19;2.20;87.50
68485;DHT22;55472;50.060;21.960;2023-12-20T08:20:46;2.20;87.70
68485;DHT22;55472;50.060;21.960;2023-12-20T08:23:13;2.20;88.10
68485;DHT22;55472;50.060;21.960;2023-12-20T08:25:39;2.20;88.70
68485;DHT22;55472;50.060;21.960;2023-12-20T08:28:06;2.20;88.80
68485;DHT22;55472;50.060;21.960;2023-12-20T08:30:32;2.20;88.80
68485;DHT22;55472;50.060;21.960;2023-12-20T08:33:01;2.20;88.60
68485;DHT22;55472;50.060;21.960;2023-12-20T08:35:28;2.20;88.70
68485;DHT22;55472;50.060;21.960;2023-12-20T08:37:54;2.30;88.60
68485;DHT22;55472;50.060;21.960;2023-12-20T08:40:21;2.30;88.40
68485;DHT22;55472;50.060;21.960;2023-12-20T08:42:47;2.30;88.30
68485;DHT22;55472;50.060;21.960;2023-12-20T08:45:13;2.30;88.20
68485;DHT22;55472;50.060;21.960;2023-12-20T08:47:40;2.30;88.10
68485;DHT22;55472;50.060;21.960;2023-12-20T08:50:07;2.30;88.30
68485;DHT22;55472;50.060;21.960;2023-12-20T08:52:33;2.30;88.20
68485;DHT22;55472;50.060;21.960;2023-12-20T08:54:59;2.30;88.10
68485;DHT22;55472;50.060;21.960;2023-12-20T08:57:26;2.30;88.30
68485;DHT22;55472;50.060;21.960;2023-12-20T08:59:52;2.30;88.20
68485;DHT22;55472;50.060;21.960;2023-12-20T09:02:18;2.30;88.40
68485;DHT22;55472;50.060;21.960;2023-12-20T09:04:44;2.30;88.50
68485;DHT22;55472;50.060;21.960;2023-12-20T09:07:26;2.30;88.40
68485;DHT22;55472;50.060;21.960;2023-12-20T09:10:06;2.30;88.60
68485;DHT22;55472;50.060;21.960;2023-12-20T09:12:32;2.30;88.70
68485;DHT22;55472;50.060;21.960;2023-12-20T09:14:58;2.40;88.80
68485;DHT22;55472;50.060;21.960;2023-12-20T09:17:31;2.40;88.80
68485;DHT22;55472;50.060;21.960;2023-12-20T09:19:57;2.40;88.60
68485;DHT22;55472;50.060;21.960;2023-12-20T09:22:26;2.40;88.50
68485;DHT22;55472;50.060;21.960;2023-12-20T09:24:53;2.40;88.40
68485;DHT22;55472;50.060;21.960;2023-12-20T09:27:19;2.40;88.30
68485;DHT22;55472;50.060;21.960;2023-12-20T09:29:45;2.40;88.20
68485;DHT22;55472;50.060;21.960;2023-12-20T09:32:11;2.40;88.50
68485;DHT22;55472;50.060;21.960;2023-12-20T09:34:37;2.40;88.60
68485;DHT22;55472;50.060;21.960;2023-12-20T09:37:04;2.40;88.70
68485;DHT22;55472;50.060;21.960;2023-12-20T09:39:31;2.40;88.90
68485;DHT22;55472;50.060;21.960;2023-12-20T09:42:01;2.40;89.00
68485;DHT22;55472;50.060;21.960;2023-12-20T09:44:29;2.50;89.00
68485;DHT22;55472;50.060;21.960;2023-12-20T09:46:56;2.50;88.90
68485;DHT22;55472;50.060;21.960;2023-12-20T09:49:23;2.50;89.20
68485;DHT22;55472;50.060;21.960;2023-12-20T09:51:50;2.50;89.40
68485;DHT22;55472;50.060;21.960;2023-12-20T09:54:18;2.50;89.20
68485;DHT22;55472;50.060;21.960;2023-12-20T09:56:45;2.60;89.50
68485;DHT22;55472;50.060;21.960;2023-12-20T09:59:11;2.60;89.70
68485;DHT22;55472;50.060;21.960;2023-12-20T10:01:39;2.60;89.80
68485;DHT22;55472;50.060;21.960;2023-12-20T10:04:09;2.60;90.00
68485;DHT22;55472;50.060;21.960;2023-12-20T10:06:42;2.60;90.00
68485;DHT22;55472;50.060;21.960;2023-12-20T10:09:10;2.60;89.90
68485;DHT22;55472;50.060;21.960;2023-12-20T10:11:38;2.60;90.20
68485;DHT22;55472;50.060;21.960;2023-12-20T10:14:05;2.70;90.20
68485;DHT22;55472;50.060;21.960;2023-12-20T10:16:33;2.60;90.10
68485;DHT22;55472;50.060;21.960;2023-12-20T10:19:00;2.70;90.00
68485;DHT22;55472;50.060;21.960;2023-12-20T10:21:30;2.70;90.10
68485;DHT22;55472;50.060;21.960;2023-12-20T10:23:57;2.70;89.80
68485;DHT22;55472;50.060;21.960;2023-12-20T10:26:27;2.70;89.70
68485;DHT22;55472;50.060;21.960;2023-12-20T10:28:55;2.70;89.50
68485;DHT22;55472;50.060;21.960;2023-12-20T10:31:30;2.70;89.80
68485;DHT22;55472;50.060;21.960;2023-12-20T10:33:58;2.70;90.60
68485;DHT22;55472;50.060;21.960;2023-12-20T10:36:27;2.70;91.00
68485;DHT22;55472;50.060;21.960;2023-12-20T10:38:54;2.60;91.40
68485;DHT22;55472;50.060;21.960;2023-12-20T10:41:32;2.60;92.30
68485;DHT22;55472;50.060;21.960;2023-12-20T10:44:00;2.60;93.00
68485;DHT22;55472;50.060;21.960;2023-12-20T10:46:31;2.60;93.60
68485;DHT22;55472;50.060;21.960;2023-12-20T10:48:58;2.50;93.80
68485;DHT22;55472;50.060;21.960;2023-12-20T10:51:25;2.60;93.90
68485;DHT22;55472;50.060;21.960;2023-12-20T10:53:53;2.60;94.50
68485;DHT22;55472;50.060;21.960;2023-12-20T10:56:20;2.60;94.50
68485;DHT22;55472;50.060;21.960;2023-12-20T10:58:47;2.50;95.00
68485;DHT22;55472;50.060;21.960;2023-12-20T11:01:16;2.60;95.40
68485;DHT22;55472;50.060;21.960;2023-12-20T11:03:52;2.60;96.10
68485;DHT22;55472;50.060;21.960;2023-12-20T11:06:35;2.60;96.40
68485;DHT22;55472;50.060;21.960;2023-12-20T11:09:24;2.60;96.90
68485;DHT22;55472;50.060;21.960;2023-12-20T11:11:59;2.50;97.30
68485;DHT22;55472;50.060;21.960;2023-12-20T11:17:14;2.60;98.40
68485;DHT22;55472;50.060;21.960;2023-12-20T11:20:04;2.60;98.50
68485;DHT22;55472;50.060;21.960;2023-12-20T11:22:34;2.60;99.00
68485;DHT22;55472;50.060;21.960;2023-12-20T11:25:05;2.50;99.30
68485;DHT22;55472;50.060;21.960;2023-12-20T11:28:09;2.50;99.60
68485;DHT22;55472;50.060;21.960;2023-12-20T11:33:14;2.40;99.90
68485;DHT22;55472;50.060;21.960;2023-12-20T11:35:42;2.40;99.90
68485;DHT22;55472;50.060;21.960;2023-12-20T11:38:09;2.40;99.90
68485;DHT22;55472;50.060;21.960;2023-12-20T11:40:36;2.50;99.90
68485;DHT22;55472;50.060;21.960;2023-12-20T11:43:03;2.40;99.90
68485;DHT22;55472;50.060;21.960;2023-12-20T11:45:33;2.40;99.90
68485;DHT22;55472;50.060;21.960;2023-12-20T11:48:06;2.40;99.90
68485;DHT22;55472;50.060;21.960;2023-12-20T11:50:33;2.40;99.90
68485;DHT22;55472;50.060;21.960;2023-12-20T11:52:59;2.40;99.90
68485;DHT22;55472;50.060;21.960;2023-12-20T11:55:25;2.40;99.90
68485;DHT22;55472;50.060;21.960;2023-12-20T11:57:51;2.30;99.90
68485;DHT22;55472;50.060;21.960;2023-12-20T12:00:18;2.30;99.90
68485;DHT22;55472;50.060;21.960;2023-12-20T12:02:56;2.20;99.90
68485;DHT22;55472;50.060;21.960;2023-12-20T12:05:23;2.20;99.90
68485;DHT22;55472;50.060;21.960;2023-12-20T12:07:49;2.20;99.90
68485;DHT22;55472;50.060;21.960;2023-12-20T12:10:15;2.10;99.90
68485;DHT22;55472;50.060;21.960;2023-12-20T12:12:42;2.10;99.90
68485;DHT22;55472;50.060;21.960;2023-12-20T12:15:08;2.10;99.90
68485;DHT22;55472;50.060;21.960;2023-12-20T12:17:42;2.10;99.90
68485;DHT22;55472;50.060;21.960;2023-12-20T12:20:11;2.10;99.90
68485;DHT22;55472;50.060;21.960;2023-12-20T12:22:38;2.00;99.90
68485;DHT22;55472;50.060;21.960;2023-12-20T12:25:43;2.00;99.90
68485;DHT22;55472;50.060;21.960;2023-12-20T12:28:14;2.00;99.90
68485;DHT22;55472;50.060;21.960;2023-12-20T12:30:41;2.00;99.90
68485;DHT22;55472;50.060;21.960;2023-12-20T12:33:08;2.00;99.90
68485;DHT22;55472;50.060;21.960;2023-12-20T12:35:34;2.00;99.90
68485;DHT22;55472;50.060;21.960;2023-12-20T12:38:01;1.90;99.90
68485;DHT22;55472;50.060;21.960;2023-12-20T12:40:28;1.90;99.90
68485;DHT22;55472;50.060;21.960;2023-12-20T12:43:01;1.90;99.90
68485;DHT22;55472;50.060;21.960;2023-12-20T12:45:30;1.90;99.90
68485;DHT22;55472;50.060;21.960;2023-12-20T12:48:16;1.90;99.90
68485;DHT22;55472;50.060;21.960;2023-12-20T12:50:48;1.90;99.90
68485;DHT22;55472;50.060;21.960;2023-12-20T12:53:19;1.90;99.90
68485;DHT22;55472;50.060;21.960;2023-12-20T12:56:17;1.90;99.90
68485;DHT22;55472;50.060;21.960;2023-12-20T12:58:47;1.90;99.90
68485;DHT22;55472;50.060;21.960;2023-12-20T13:01:13;1.90;99.90
68485;DHT22;55472;50.060;21.960;2023-12-20T13:03:40;1.90;99.90
68485;DHT22;55472;50.060;21.960;2023-12-20T13:06:06;1.90;99.90
68485;DHT22;55472;50.060;21.960;2023-12-20T13:08:34;1.90;99.90
68485;DHT22;55472;50.060;21.960;2023-12-20T13:11:00;1.90;99.90
68485;DHT22;55472;50.060;21.960;2023-12-20T13:13:30;1.90;99.90
68485;DHT22;55472;50.060;21.960;2023-12-20T13:15:57;1.80;99.90
68485;DHT22;55472;50.060;21.960;2023-12-20T13:18:23;1.90;99.90
68485;DHT22;55472;50.060;21.960;2023-12-20T13:20:49;1.80;99.90
68485;DHT22;55472;50.060;21.960;2023-12-20T13:23:16;1.80;99.90
68485;DHT22;55472;50.060;21.960;2023-12-20T13:25:44;1.80;99.90
68485;DHT22;55472;50.060;21.960;2023-12-20T13:28:13;1.80;99.90
68485;DHT22;55472;50.060;21.960;2023-12-20T13:30:39;1.80;99.90
68485;DHT22;55472;50.060;21.960;2023-12-20T13:33:06;1.80;99.90
68485;DHT22;55472;50.060;21.960;2023-12-20T13:35:33;1.80;99.90
68485;DHT22;55472;50.060;21.960;2023-12-20T13:38:18;1.80;99.90
68485;DHT22;55472;50.060;21.960;2023-12-20T13:41:22;1.80;99.90
68485;DHT22;55472;50.060;21.960;2023-12-20T13:43:51;1.70;99.90
68485;DHT22;55472;50.060;21.960;2023-12-20T13:46:17;1.70;99.90
68485;DHT22;55472;50.060;21.960;2023-12-20T13:48:43;1.70;99.90
68485;DHT22;55472;50.060;21.960;2023-12-20T13:51:09;1.70;99.90
68485;DHT22;55472;50.060;21.960;2023-12-20T13:53:38;1.70;99.90
68485;DHT22;55472;50.060;21.960;2023-12-20T13:56:04;1.70;99.90
68485;DHT22;55472;50.060;21.960;2023-12-20T13:58:31;1.70;99.90
68485;DHT22;55472;50.060;21.960;2023-12-20T14:00:57;1.70;99.90
68485;DHT22;55472;50.060;21.960;2023-12-20T14:03:24;1.70;99.90
68485;DHT22;55472;50.060;21.960;2023-12-20T14:05:50;1.80;99.90
68485;DHT22;55472;50.060;21.960;2023-12-20T14:08:16;1.80;99.90
68485;DHT22;55472;50.060;21.960;2023-12-20T14:10:54;1.80;99.90
68485;DHT22;55472;50.060;21.960;2023-12-20T14:13:21;1.80;99.90
68485;DHT22;55472;50.060;21.960;2023-12-20T14:15:47;1.80;99.90
68485;DHT22;55472;50.060;21.960;2023-12-20T14:18:15;1.80;99.90
68485;DHT22;55472;50.060;21.960;2023-12-20T14:20:42;1.80;99.90
68485;DHT22;55472;50.060;21.960;2023-12-20T14:23:09;1.80;99.90
68485;DHT22;55472;50.060;21.960;2023-12-20T14:25:37;1.80;99.90
68485;DHT22;55472;50.060;21.960;2023-12-20T14:28:04;1.80;99.90
68485;DHT22;55472;50.060;21.960;2023-12-20T14:30:30;1.80;99.90
68485;DHT22;55472;50.060;21.960;2023-12-20T14:32:58;1.80;99.90
68485;DHT22;55472;50.060;21.960;2023-12-20T14:35:24;1.80;99.90
68485;DHT22;55472;50.060;21.960;2023-12-20T14:37:50;1.80;99.90
68485;DHT22;55472;50.060;21.960;2023-12-20T14:40:16;1.80;99.90
68485;DHT22;55472;50.060;21.960;2023-12-20T14:42:43;1.80;99.90
68485;DHT22;55472;50.060;21.960;2023-12-20T14:45:11;1.80;99.90
68485;DHT22;55472;50.060;21.960;2023-12-20T14:47:39;1.90;99.90
68485;DHT22;55472;50.060;21.960;2023-12-20T14:50:06;1.90;99.90
68485;DHT22;55472;50.060;21.960;2023-12-20T14:52:34;1.90;99.90
68485;DHT22;55472;50.060;21.960;2023-12-20T14:55:00;1.90;99.90
68485;DHT22;55472;50.060;21.960;2023-12-20T14:57:28;1.90;99.90
68485;DHT22;55472;50.060;21.960;2023-12-20T14:59:57;1.90;99.90
68485;DHT22;55472;50.060;21.960;2023-12-20T15:02:24;2.00;99.90
68485;DHT22;55472;50.060;21.960;2023-12-20T15:04:50;2.00;99.90
68485;DHT22;55472;50.060;21.960;2023-12-20T15:07:19;2.00;99.90
68485;DHT22;55472;50.060;21.960;2023-12-20T15:09:45;2.10;99.90
68485;DHT22;55472;50.060;21.960;2023-12-20T15:12:13;2.10;99.90
68485;DHT22;55472;50.060;21.960;2023-12-20T15:14:39;2.10;99.90
68485;DHT22;55472;50.060;21.960;2023-12-20T15:17:05;2.10;99.90
68485;DHT22;55472;50.060;21.960;2023-12-20T15:19:32;2.10;99.90
68485;DHT22;55472;50.060;21.960;2023-12-20T15:21:58;2.20;99.90
68485;DHT22;55472;50.060;21.960;2023-12-20T15:24:25;2.20;99.90
68485;DHT22;55472;50.060;21.960;2023-12-20T15:27:19;2.20;99.90
68485;DHT22;55472;50.060;21.960;2023-12-20T15:29:58;2.20;99.90
68485;DHT22;55472;50.060;21.960;2023-12-20T15:32:27;2.30;99.90
68485;DHT22;55472;50.060;21.960;2023-12-20T15:35:12;2.30;99.90
68485;DHT22;55472;50.060;21.960;2023-12-20T15:37:53;2.40;99.90
68485;DHT22;55472;50.060;21.960;2023-12-20T15:40:29;2.40;99.90